sensor_id;sensor_type;location;lat;lon;timestamp;P1;durP1;ratioP1;P2;durP2;ratioP2
9384;SDS011;4732;49.340;10.886;2023-08-01T03:06:06;6.93;;;3.65;;
9384;SDS011;4732;49.340;10.886;2023-08-01T03:08:32;6.88;;;3.80;;
9384;SDS011;4732;49.340;10.886;2023-08-01T03:10:58;5.43;;;3.58;;
9384;SDS011;4732;49.340;10.886;2023-08-01T03:13:23;6.30;;;3.10;;
9384;SDS011;4732;49.340;10.886;2023-08-01T03:15:49;5.88;;;3.45;;
9384;SDS011;4732;49.340;10.886;2023-08-01T03:18:14;7.35;;;3.95;;
9384;SDS011;4732;49.340;10.886;2023-08-01T03:20:40;5.22;;;3.63;;
9384;SDS011;4732;49.340;10.886;2023-08-01T03:23:05;4.13;;;3.60;;
9384;SDS011;4732;49.340;10.886;2023-08-01T03:25:31;5.45;;;3.80;;
9384;SDS011;4732;49.340;10.886;2023-08-01T03:27:57;4.85;;;3.58;;
9384;SDS011;4732;49.340;10.886;2023-08-01T03:30:22;6.22;;;3.60;;
9384;SDS011;4732;49.340;10.886;2023-08-01T03:32:48;6.28;;;3.80;;
9384;SDS011;4732;49.340;10.886;2023-08-01T03:35:14;6.05;;;3.70;;
9384;SDS011;4732;49.340;10.886;2023-08-01T03:37:40;6.78;;;3.75;;
9384;SDS011;4732;49.340;10.886;2023-08-01T03:40:06;5.35;;;3.75;;
9384;SDS011;4732;49.340;10.886;2023-08-01T03:42:35;6.40;;;3.80;;
9384;SDS011;4732;49.340;10.886;2023-08-01T03:45:05;6.95;;;3.90;;
9384;SDS011;4732;49.340;10.886;2023-08-01T03:47:31;6.22;;;3.60;;
9384;SDS011;4732;49.340;10.886;2023-08-01T03:49:57;6.85;;;3.80;;
9384;SDS011;4732;49.340;10.886;2023-08-01T03:52:23;5.03;;;3.45;;
9384;SDS011;4732;49.340;10.886;2023-08-01T03:54:49;5.45;;;3.33;;
9384;SDS011;4732;49.340;10.886;2023-08-01T03:57:14;6.03;;;3.67;;
9384;SDS011;4732;49.340;10.886;2023-08-01T03:59:40;6.78;;;4.03;;
9384;SDS011;4732;49.340;10.886;2023-08-01T04:02:05;7.40;;;3.97;;
9384;SDS011;4732;49.340;10.886;2023-08-01T04:04:31;5.97;;;3.58;;
9384;SDS011;4732;49.340;10.886;2023-08-01T04:06:56;6.55;;;3.92;;
9384;SDS011;4732;49.340;10.886;2023-08-01T04:09:22;9.07;;;4.78;;
9384;SDS011;4732;49.340;10.886;2023-08-01T04:11:48;6.07;;;4.47;;
9384;SDS011;4732;49.340;10.886;2023-08-01T04:14:13;6.78;;;4.38;;
9384;SDS011;4732;49.340;10.886;2023-08-01T04:16:39;6.55;;;3.90;;
9384;SDS011;4732;49.340;10.886;2023-08-01T04:19:05;5.55;;;4.15;;
9384;SDS011;4732;49.340;10.886;2023-08-01T04:21:30;6.18;;;4.15;;
9384;SDS011;4732;49.340;10.886;2023-08-01T04:23:56;6.70;;;4.50;;
9384;SDS011;4732;49.340;10.886;2023-08-01T04:26:21;7.97;;;4.10;;
9384;SDS011;4732;49.340;10.886;2023-08-01T04:28:47;8.45;;;5.90;;
9384;SDS011;4732;49.340;10.886;2023-08-01T04:31:13;5.68;;;3.80;;
9384;SDS011;4732;49.340;10.886;2023-08-01T04:33:38;7.18;;;4.15;;
9384;SDS011;4732;49.340;10.886;2023-08-01T04:36:04;6.57;;;4.10;;
9384;SDS011;4732;49.340;10.886;2023-08-01T04:38:29;7.75;;;4.70;;
9384;SDS011;4732;49.340;10.886;2023-08-01T04:40:55;5.97;;;4.32;;
9384;SDS011;4732;49.340;10.886;2023-08-01T04:43:20;5.97;;;4.05;;
9384;SDS011;4732;49.340;10.886;2023-08-01T04:45:46;5.28;;;3.67;;
9384;SDS011;4732;49.340;10.886;2023-08-01T04:48:11;5.05;;;4.28;;
9384;SDS011;4732;49.340;10.886;2023-08-01T04:50:37;6.13;;;4.72;;
9384;SDS011;4732;49.340;10.886;2023-08-01T04:53:02;5.80;;;4.05;;
9384;SDS011;4732;49.340;10.886;2023-08-01T04:55:28;6.07;;;4.78;;
9384;SDS011;4732;49.340;10.886;2023-08-01T04:57:54;5.93;;;4.30;;
9384;SDS011;4732;49.340;10.886;2023-08-01T05:00:20;7.95;;;4.30;;
9384;SDS011;4732;49.340;10.886;2023-08-01T05:02:45;5.13;;;3.63;;
9384;SDS011;4732;49.340;10.886;2023-08-01T05:05:11;9.13;;;4.40;;
9384;SDS011;4732;49.340;10.886;2023-08-01T05:07:36;6.88;;;4.45;;
9384;SDS011;4732;49.340;10.886;2023-08-01T05:10:02;5.85;;;4.40;;
9384;SDS011;4732;49.340;10.886;2023-08-01T05:12:27;6.75;;;4.03;;
9384;SDS011;4732;49.340;10.886;2023-08-01T05:14:53;7.28;;;4.25;;
9384;SDS011;4732;49.340;10.886;2023-08-01T05:17:18;7.35;;;3.97;;
9384;SDS011;4732;49.340;10.886;2023-08-01T05:19:44;5.50;;;3.65;;
9384;SDS011;4732;49.340;10.886;2023-08-01T05:22:09;5.68;;;4.00;;
9384;SDS011;4732;49.340;10.886;2023-08-01T05:24:35;6.80;;;4.20;;
9384;SDS011;4732;49.340;10.886;2023-08-01T05:27:00;5.88;;;4.22;;
9384;SDS011;4732;49.340;10.886;2023-08-01T05:29:26;5.78;;;4.07;;
9384;SDS011;4732;49.340;10.886;2023-08-01T05:31:52;11.32;;;3.92;;
9384;SDS011;4732;49.340;10.886;2023-08-01T05:34:17;5.55;;;4.00;;
9384;SDS011;4732;49.340;10.886;2023-08-01T05:36:43;7.30;;;4.55;;
9384;SDS011;4732;49.340;10.886;2023-08-01T05:39:08;7.20;;;4.10;;
9384;SDS011;4732;49.340;10.886;2023-08-01T05:41:34;6.88;;;3.90;;
9384;SDS011;4732;49.340;10.886;2023-08-01T05:44:01;6.15;;;3.90;;
9384;SDS011;4732;49.340;10.886;2023-08-01T05:46:27;4.97;;;4.05;;
9384;SDS011;4732;49.340;10.886;2023-08-01T05:48:52;6.80;;;3.80;;
9384;SDS011;4732;49.340;10.886;2023-08-01T05:51:18;5.47;;;4.05;;
9384;SDS011;4732;49.340;10.886;2023-08-01T05:53:43;4.82;;;3.65;;
9384;SDS011;4732;49.340;10.886;2023-08-01T05:56:09;6.00;;;4.15;;
9384;SDS011;4732;49.340;10.886;2023-08-01T05:58:35;6.28;;;4.50;;
9384;SDS011;4732;49.340;10.886;2023-08-01T06:01:00;7.30;;;4.18;;
9384;SDS011;4732;49.340;10.886;2023-08-01T06:03:26;7.78;;;4.78;;
9384;SDS011;4732;49.340;10.886;2023-08-01T06:05:51;8.10;;;4.63;;
9384;SDS011;4732;49.340;10.886;2023-08-01T06:08:17;6.10;;;4.38;;
9384;SDS011;4732;49.340;10.886;2023-08-01T06:10:43;5.22;;;4.25;;
9384;SDS011;4732;49.340;10.886;2023-08-01T06:13:09;11.10;;;5.82;;
9384;SDS011;4732;49.340;10.886;2023-08-01T06:15:34;6.57;;;4.00;;
9384;SDS011;4732;49.340;10.886;2023-08-01T06:18:00;5.97;;;4.28;;
9384;SDS011;4732;49.340;10.886;2023-08-01T06:20:27;8.32;;;4.30;;
9384;SDS011;4732;49.340;10.886;2023-08-01T06:22:52;6.78;;;3.65;;
9384;SDS011;4732;49.340;10.886;2023-08-01T06:25:18;5.40;;;3.90;;
9384;SDS011;4732;49.340;10.886;2023-08-01T06:27:43;5.00;;;3.58;;
9384;SDS011;4732;49.340;10.886;2023-08-01T06:30:09;5.93;;;3.65;;
9384;SDS011;4732;49.340;10.886;2023-08-01T06:32:35;5.28;;;4.20;;
9384;SDS011;4732;49.340;10.886;2023-08-01T06:35:00;6.45;;;3.63;;
9384;SDS011;4732;49.340;10.886;2023-08-01T06:37:26;7.22;;;4.50;;
9384;SDS011;4732;49.340;10.886;2023-08-01T06:39:51;7.65;;;4.00;;
9384;SDS011;4732;49.340;10.886;2023-08-01T06:42:17;8.18;;;4.55;;
9384;SDS011;4732;49.340;10.886;2023-08-01T06:44:43;7.93;;;4.00;;
9384;SDS011;4732;49.340;10.886;2023-08-01T06:47:08;6.03;;;3.75;;
9384;SDS011;4732;49.340;10.886;2023-08-01T06:49:34;5.78;;;3.95;;
9384;SDS011;4732;49.340;10.886;2023-08-01T06:52:00;7.03;;;4.03;;
9384;SDS011;4732;49.340;10.886;2023-08-01T06:54:25;7.63;;;4.30;;
9384;SDS011;4732;49.340;10.886;2023-08-01T06:56:51;6.32;;;4.40;;
9384;SDS011;4732;49.340;10.886;2023-08-01T06:59:16;8.93;;;3.92;;
9384;SDS011;4732;49.340;10.886;2023-08-01T07:01:42;7.55;;;3.90;;
9384;SDS011;4732;49.340;10.886;2023-08-01T07:04:12;6.25;;;4.68;;
9384;SDS011;4732;49.340;10.886;2023-08-01T07:06:38;6.28;;;4.65;;
9384;SDS011;4732;49.340;10.886;2023-08-01T07:09:04;5.35;;;4.20;;
9384;SDS011;4732;49.340;10.886;2023-08-01T07:11:31;7.45;;;5.55;;
9384;SDS011;4732;49.340;10.886;2023-08-01T07:13:56;9.45;;;5.78;;
9384;SDS011;4732;49.340;10.886;2023-08-01T07:16:22;7.82;;;4.88;;
9384;SDS011;4732;49.340;10.886;2023-08-01T07:18:47;9.40;;;3.90;;
9384;SDS011;4732;49.340;10.886;2023-08-01T07:21:16;6.10;;;3.70;;
9384;SDS011;4732;49.340;10.886;2023-08-01T07:23:41;5.40;;;4.07;;
9384;SDS011;4732;49.340;10.886;2023-08-01T07:26:07;6.40;;;3.65;;
9384;SDS011;4732;49.340;10.886;2023-08-01T07:28:33;6.40;;;4.10;;
9384;SDS011;4732;49.340;10.886;2023-08-01T07:31:03;7.18;;;4.40;;
9384;SDS011;4732;49.340;10.886;2023-08-01T07:33:30;8.95;;;4.28;;
9384;SDS011;4732;49.340;10.886;2023-08-01T07:35:56;6.50;;;4.68;;
9384;SDS011;4732;49.340;10.886;2023-08-01T07:38:22;5.53;;;4.07;;
9384;SDS011;4732;49.340;10.886;2023-08-01T07:40:48;5.82;;;4.35;;
9384;SDS011;4732;49.340;10.886;2023-08-01T07:43:14;5.93;;;4.30;;
9384;SDS011;4732;49.340;10.886;2023-08-01T07:45:40;6.25;;;4.30;;
9384;SDS011;4732;49.340;10.886;2023-08-01T07:48:05;7.15;;;4.13;;
9384;SDS011;4732;49.340;10.886;2023-08-01T07:50:31;5.45;;;3.83;;
9384;SDS011;4732;49.340;10.886;2023-08-01T07:52:56;6.70;;;4.20;;
9384;SDS011;4732;49.340;10.886;2023-08-01T07:55:22;4.72;;;3.63;;
9384;SDS011;4732;49.340;10.886;2023-08-01T07:57:48;7.10;;;4.22;;
9384;SDS011;4732;49.340;10.886;2023-08-01T08:00:13;6.15;;;3.80;;
9384;SDS011;4732;49.340;10.886;2023-08-01T08:02:41;7.13;;;4.18;;
9384;SDS011;4732;49.340;10.886;2023-08-01T08:05:08;7.95;;;4.00;;
9384;SDS011;4732;49.340;10.886;2023-08-01T08:07:34;6.05;;;4.20;;
9384;SDS011;4732;49.340;10.886;2023-08-01T08:10:01;8.73;;;3.88;;
9384;SDS011;4732;49.340;10.886;2023-08-01T08:12:27;7.78;;;4.53;;
9384;SDS011;4732;49.340;10.886;2023-08-01T08:14:52;7.82;;;4.28;;
9384;SDS011;4732;49.340;10.886;2023-08-01T08:17:18;7.00;;;4.18;;
9384;SDS011;4732;49.340;10.886;2023-08-01T08:19:44;7.55;;;4.20;;
9384;SDS011;4732;49.340;10.886;2023-08-01T08:22:09;7.25;;;4.05;;
9384;SDS011;4732;49.340;10.886;2023-08-01T08:24:35;6.85;;;4.30;;
9384;SDS011;4732;49.340;10.886;2023-08-01T08:27:00;5.60;;;3.83;;
9384;SDS011;4732;49.340;10.886;2023-08-01T08:29:26;8.65;;;4.28;;
9384;SDS011;4732;49.340;10.886;2023-08-01T08:31:51;9.85;;;4.05;;
9384;SDS011;4732;49.340;10.886;2023-08-01T08:34:17;6.75;;;4.00;;
9384;SDS011;4732;49.340;10.886;2023-08-01T08:36:42;5.82;;;4.10;;
9384;SDS011;4732;49.340;10.886;2023-08-01T08:39:08;8.35;;;3.97;;
9384;SDS011;4732;49.340;10.886;2023-08-01T08:41:35;8.18;;;4.60;;
9384;SDS011;4732;49.340;10.886;2023-08-01T08:44:04;6.45;;;3.50;;
9384;SDS011;4732;49.340;10.886;2023-08-01T08:46:32;7.32;;;3.97;;
9384;SDS011;4732;49.340;10.886;2023-08-01T08:49:05;7.15;;;3.97;;
9384;SDS011;4732;49.340;10.886;2023-08-01T08:51:31;5.95;;;4.38;;
9384;SDS011;4732;49.340;10.886;2023-08-01T08:53:57;5.88;;;3.85;;
9384;SDS011;4732;49.340;10.886;2023-08-01T08:56:23;5.60;;;4.20;;
9384;SDS011;4732;49.340;10.886;2023-08-01T08:58:49;6.28;;;4.22;;
9384;SDS011;4732;49.340;10.886;2023-08-01T09:01:15;5.93;;;4.30;;
9384;SDS011;4732;49.340;10.886;2023-08-01T09:03:42;6.18;;;4.47;;
9384;SDS011;4732;49.340;10.886;2023-08-01T09:06:11;5.43;;;4.00;;
9384;SDS011;4732;49.340;10.886;2023-08-01T09:08:40;7.13;;;4.18;;
9384;SDS011;4732;49.340;10.886;2023-08-01T09:11:12;8.55;;;4.00;;
9384;SDS011;4732;49.340;10.886;2023-08-01T09:13:38;8.95;;;4.47;;
9384;SDS011;4732;49.340;10.886;2023-08-01T09:16:03;8.15;;;4.40;;
9384;SDS011;4732;49.340;10.886;2023-08-01T09:18:31;6.95;;;4.55;;
9384;SDS011;4732;49.340;10.886;2023-08-01T09:20:57;5.93;;;3.95;;
9384;SDS011;4732;49.340;10.886;2023-08-01T09:23:27;6.47;;;4.10;;
9384;SDS011;4732;49.340;10.886;2023-08-01T09:25:53;6.32;;;4.38;;
9384;SDS011;4732;49.340;10.886;2023-08-01T09:28:19;5.53;;;4.43;;
9384;SDS011;4732;49.340;10.886;2023-08-01T09:30:47;5.50;;;4.10;;
9384;SDS011;4732;49.340;10.886;2023-08-01T09:33:19;6.72;;;4.30;;
9384;SDS011;4732;49.340;10.886;2023-08-01T09:35:44;7.60;;;4.53;;
9384;SDS011;4732;49.340;10.886;2023-08-01T09:38:13;6.00;;;4.18;;
9384;SDS011;4732;49.340;10.886;2023-08-01T09:40:40;5.28;;;4.20;;
9384;SDS011;4732;49.340;10.886;2023-08-01T09:43:07;5.97;;;4.03;;
9384;SDS011;4732;49.340;10.886;2023-08-01T09:45:32;7.65;;;4.50;;
9384;SDS011;4732;49.340;10.886;2023-08-01T09:47:59;5.72;;;4.20;;
9384;SDS011;4732;49.340;10.886;2023-08-01T09:50:25;5.13;;;4.50;;
9384;SDS011;4732;49.340;10.886;2023-08-01T09:52:51;5.57;;;4.10;;
9384;SDS011;4732;49.340;10.886;2023-08-01T09:57:56;5.15;;;4.07;;
9384;SDS011;4732;49.340;10.886;2023-08-01T10:00:25;5.70;;;4.28;;
9384;SDS011;4732;49.340;10.886;2023-08-01T10:02:55;5.63;;;4.13;;
9384;SDS011;4732;49.340;10.886;2023-08-01T10:05:25;5.80;;;4.40;;
9384;SDS011;4732;49.340;10.886;2023-08-01T10:07:54;5.28;;;3.95;;
9384;SDS011;4732;49.340;10.886;2023-08-01T10:10:23;4.47;;;3.75;;
9384;SDS011;4732;49.340;10.886;2023-08-01T10:12:50;5.03;;;3.80;;
9384;SDS011;4732;49.340;10.886;2023-08-01T10:15:16;6.13;;;4.07;;
9384;SDS011;4732;49.340;10.886;2023-08-01T10:17:42;5.20;;;3.40;;
9384;SDS011;4732;49.340;10.886;2023-08-01T10:20:09;4.00;;;3.13;;
9384;SDS011;4732;49.340;10.886;2023-08-01T10:22:37;4.82;;;3.05;;
9384;SDS011;4732;49.340;10.886;2023-08-01T10:25:03;4.15;;;3.20;;
9384;SDS011;4732;49.340;10.886;2023-08-01T10:27:30;3.60;;;3.10;;
9384;SDS011;4732;49.340;10.886;2023-08-01T10:29:56;4.53;;;2.92;;
9384;SDS011;4732;49.340;10.886;2023-08-01T10:32:32;4.43;;;2.72;;
9384;SDS011;4732;49.340;10.886;2023-08-01T10:34:59;5.00;;;2.67;;
9384;SDS011;4732;49.340;10.886;2023-08-01T10:37:25;3.67;;;2.65;;
9384;SDS011;4732;49.340;10.886;2023-08-01T10:39:58;2.75;;;2.47;;
9384;SDS011;4732;49.340;10.886;2023-08-01T10:42:24;2.80;;;2.50;;
9384;SDS011;4732;49.340;10.886;2023-08-01T10:44:50;2.55;;;2.35;;
9384;SDS011;4732;49.340;10.886;2023-08-01T10:47:24;5.15;;;2.55;;
9384;SDS011;4732;49.340;10.886;2023-08-01T10:49:51;3.67;;;2.25;;
9384;SDS011;4732;49.340;10.886;2023-08-01T10:52:18;3.33;;;2.17;;
9384;SDS011;4732;49.340;10.886;2023-08-01T10:54:45;4.43;;;2.22;;
9384;SDS011;4732;49.340;10.886;2023-08-01T10:57:17;2.92;;;2.10;;
9384;SDS011;4732;49.340;10.886;2023-08-01T10:59:43;3.30;;;2.50;;
9384;SDS011;4732;49.340;10.886;2023-08-01T11:02:09;2.90;;;2.03;;
9384;SDS011;4732;49.340;10.886;2023-08-01T11:04:35;2.63;;;2.10;;
9384;SDS011;4732;49.340;10.886;2023-08-01T11:07:01;4.47;;;2.13;;
9384;SDS011;4732;49.340;10.886;2023-08-01T11:09:28;2.83;;;1.98;;
9384;SDS011;4732;49.340;10.886;2023-08-01T11:11:55;3.05;;;2.05;;
9384;SDS011;4732;49.340;10.886;2023-08-01T11:14:22;2.53;;;2.10;;
9384;SDS011;4732;49.340;10.886;2023-08-01T11:16:49;4.55;;;1.95;;
9384;SDS011;4732;49.340;10.886;2023-08-01T11:19:19;2.00;;;1.80;;
9384;SDS011;4732;49.340;10.886;2023-08-01T11:21:45;2.15;;;1.95;;
9384;SDS011;4732;49.340;10.886;2023-08-01T11:24:10;2.35;;;1.60;;
9384;SDS011;4732;49.340;10.886;2023-08-01T11:26:39;4.00;;;1.90;;
9384;SDS011;4732;49.340;10.886;2023-08-01T11:29:09;2.65;;;2.00;;
9384;SDS011;4732;49.340;10.886;2023-08-01T11:31:35;1.95;;;1.75;;
9384;SDS011;4732;49.340;10.886;2023-08-01T11:34:01;1.35;;;1.08;;
9384;SDS011;4732;49.340;10.886;2023-08-01T11:36:28;1.60;;;1.42;;
9384;SDS011;4732;49.340;10.886;2023-08-01T11:38:55;1.42;;;1.33;;
9384;SDS011;4732;49.340;10.886;2023-08-01T11:41:28;1.52;;;1.10;;
9384;SDS011;4732;49.340;10.886;2023-08-01T11:43:54;1.50;;;1.40;;
9384;SDS011;4732;49.340;10.886;2023-08-01T11:46:20;1.90;;;1.27;;
9384;SDS011;4732;49.340;10.886;2023-08-01T11:48:47;2.92;;;1.20;;
9384;SDS011;4732;49.340;10.886;2023-08-01T11:51:15;1.52;;;1.20;;
9384;SDS011;4732;49.340;10.886;2023-08-01T11:53:40;1.27;;;1.15;;
9384;SDS011;4732;49.340;10.886;2023-08-01T11:56:06;0.93;;;0.93;;
9384;SDS011;4732;49.340;10.886;2023-08-01T11:58:33;2.15;;;1.00;;
9384;SDS011;4732;49.340;10.886;2023-08-01T12:01:04;1.08;;;0.93;;
9384;SDS011;4732;49.340;10.886;2023-08-01T12:03:30;2.45;;;1.00;;
9384;SDS011;4732;49.340;10.886;2023-08-01T12:06:05;2.65;;;0.80;;
9384;SDS011;4732;49.340;10.886;2023-08-01T12:08:34;1.15;;;0.90;;
9384;SDS011;4732;49.340;10.886;2023-08-01T12:11:00;1.33;;;0.82;;
9384;SDS011;4732;49.340;10.886;2023-08-01T12:13:26;1.30;;;0.82;;
9384;SDS011;4732;49.340;10.886;2023-08-01T12:15:52;1.98;;;0.80;;
9384;SDS011;4732;49.340;10.886;2023-08-01T12:18:24;1.17;;;0.80;;
9384;SDS011;4732;49.340;10.886;2023-08-01T12:20:51;1.02;;;0.90;;
9384;SDS011;4732;49.340;10.886;2023-08-01T12:23:17;2.50;;;1.08;;
9384;SDS011;4732;49.340;10.886;2023-08-01T12:25:43;1.38;;;0.90;;
9384;SDS011;4732;49.340;10.886;2023-08-01T12:28:10;1.17;;;0.80;;
9384;SDS011;4732;49.340;10.886;2023-08-01T12:30:35;1.17;;;0.75;;
9384;SDS011;4732;49.340;10.886;2023-08-01T12:33:01;0.73;;;0.70;;
9384;SDS011;4732;49.340;10.886;2023-08-01T12:35:27;1.02;;;0.90;;
9384;SDS011;4732;49.340;10.886;2023-08-01T12:37:52;0.68;;;0.65;;
9384;SDS011;4732;49.340;10.886;2023-08-01T12:40:21;4.90;;;1.08;;
9384;SDS011;4732;49.340;10.886;2023-08-01T12:42:47;0.80;;;0.50;;
9384;SDS011;4732;49.340;10.886;2023-08-01T12:45:12;1.65;;;0.80;;
9384;SDS011;4732;49.340;10.886;2023-08-01T12:47:38;0.70;;;0.70;;
9384;SDS011;4732;49.340;10.886;2023-08-01T12:50:04;2.95;;;0.80;;
9384;SDS011;4732;49.340;10.886;2023-08-01T12:52:30;3.75;;;0.80;;
9384;SDS011;4732;49.340;10.886;2023-08-01T12:54:55;1.17;;;0.75;;
9384;SDS011;4732;49.340;10.886;2023-08-01T12:57:21;1.15;;;0.50;;
9384;SDS011;4732;49.340;10.886;2023-08-01T12:59:46;1.75;;;0.60;;
9384;SDS011;4732;49.340;10.886;2023-08-01T13:02:13;1.00;;;0.70;;
9384;SDS011;4732;49.340;10.886;2023-08-01T13:04:39;3.30;;;0.70;;
9384;SDS011;4732;49.340;10.886;2023-08-01T13:07:04;1.63;;;0.68;;
9384;SDS011;4732;49.340;10.886;2023-08-01T13:09:30;1.63;;;0.88;;
9384;SDS011;4732;49.340;10.886;2023-08-01T13:11:56;1.00;;;0.90;;
9384;SDS011;4732;49.340;10.886;2023-08-01T13:14:21;3.40;;;1.00;;
9384;SDS011;4732;49.340;10.886;2023-08-01T13:16:49;2.17;;;0.85;;
9384;SDS011;4732;49.340;10.886;2023-08-01T13:19:15;3.63;;;0.90;;
9384;SDS011;4732;49.340;10.886;2023-08-01T13:21:40;1.90;;;0.90;;
9384;SDS011;4732;49.340;10.886;2023-08-01T13:24:06;1.40;;;0.70;;
9384;SDS011;4732;49.340;10.886;2023-08-01T13:26:34;3.03;;;0.82;;
9384;SDS011;4732;49.340;10.886;2023-08-01T13:28:59;2.65;;;1.05;;
9384;SDS011;4732;49.340;10.886;2023-08-01T13:31:25;1.27;;;0.70;;
9384;SDS011;4732;49.340;10.886;2023-08-01T13:33:51;2.13;;;0.90;;
9384;SDS011;4732;49.340;10.886;2023-08-01T13:36:20;0.85;;;0.75;;
9384;SDS011;4732;49.340;10.886;2023-08-01T13:38:45;2.30;;;0.90;;
9384;SDS011;4732;49.340;10.886;2023-08-01T13:41:11;2.03;;;0.77;;
9384;SDS011;4732;49.340;10.886;2023-08-01T13:43:36;3.25;;;0.90;;
9384;SDS011;4732;49.340;10.886;2023-08-01T13:46:12;2.50;;;0.90;;
9384;SDS011;4732;49.340;10.886;2023-08-01T13:48:40;1.38;;;0.88;;
9384;SDS011;4732;49.340;10.886;2023-08-01T13:51:06;1.17;;;1.05;;
9384;SDS011;4732;49.340;10.886;2023-08-01T13:53:31;1.35;;;0.90;;
9384;SDS011;4732;49.340;10.886;2023-08-01T13:55:58;3.35;;;1.00;;
9384;SDS011;4732;49.340;10.886;2023-08-01T13:58:24;1.92;;;1.00;;
9384;SDS011;4732;49.340;10.886;2023-08-01T14:00:49;4.07;;;1.30;;
9384;SDS011;4732;49.340;10.886;2023-08-01T14:03:15;7.55;;;1.90;;
9384;SDS011;4732;49.340;10.886;2023-08-01T14:05:40;5.05;;;1.58;;
9384;SDS011;4732;49.340;10.886;2023-08-01T14:08:06;4.22;;;1.38;;
9384;SDS011;4732;49.340;10.886;2023-08-01T14:10:31;1.48;;;1.20;;
9384;SDS011;4732;49.340;10.886;2023-08-01T14:12:57;2.30;;;1.20;;
9384;SDS011;4732;49.340;10.886;2023-08-01T14:15:22;3.53;;;1.42;;
9384;SDS011;4732;49.340;10.886;2023-08-01T14:17:48;3.20;;;1.10;;
9384;SDS011;4732;49.340;10.886;2023-08-01T14:20:13;2.28;;;1.05;;
9384;SDS011;4732;49.340;10.886;2023-08-01T14:22:40;3.65;;;1.33;;
9384;SDS011;4732;49.340;10.886;2023-08-01T14:25:07;1.58;;;0.82;;
9384;SDS011;4732;49.340;10.886;2023-08-01T14:27:33;3.05;;;0.77;;
9384;SDS011;4732;49.340;10.886;2023-08-01T14:29:59;1.75;;;0.80;;
9384;SDS011;4732;49.340;10.886;2023-08-01T14:32:25;2.15;;;0.80;;
9384;SDS011;4732;49.340;10.886;2023-08-01T14:34:50;1.30;;;0.82;;
9384;SDS011;4732;49.340;10.886;2023-08-01T14:37:16;1.00;;;0.90;;
9384;SDS011;4732;49.340;10.886;2023-08-01T14:39:41;0.88;;;0.70;;
9384;SDS011;4732;49.340;10.886;2023-08-01T14:42:07;0.95;;;0.70;;
9384;SDS011;4732;49.340;10.886;2023-08-01T14:44:32;1.42;;;0.90;;
9384;SDS011;4732;49.340;10.886;2023-08-01T14:46:58;2.42;;;0.88;;
9384;SDS011;4732;49.340;10.886;2023-08-01T14:49:23;1.27;;;0.88;;
9384;SDS011;4732;49.340;10.886;2023-08-01T14:51:54;1.58;;;1.00;;
9384;SDS011;4732;49.340;10.886;2023-08-01T14:54:19;2.00;;;0.93;;
9384;SDS011;4732;49.340;10.886;2023-08-01T14:56:45;1.45;;;0.90;;
9384;SDS011;4732;49.340;10.886;2023-08-01T14:59:10;1.30;;;1.10;;
9384;SDS011;4732;49.340;10.886;2023-08-01T15:01:36;1.05;;;0.93;;
9384;SDS011;4732;49.340;10.886;2023-08-01T15:04:02;1.55;;;1.20;;
9384;SDS011;4732;49.340;10.886;2023-08-01T15:06:28;1.20;;;1.10;;
9384;SDS011;4732;49.340;10.886;2023-08-01T15:08:53;0.80;;;0.80;;
9384;SDS011;4732;49.340;10.886;2023-08-01T15:11:20;1.20;;;1.10;;
9384;SDS011;4732;49.340;10.886;2023-08-01T15:13:45;1.92;;;1.10;;
9384;SDS011;4732;49.340;10.886;2023-08-01T15:16:11;5.22;;;1.30;;
9384;SDS011;4732;49.340;10.886;2023-08-01T15:18:37;2.17;;;1.38;;
9384;SDS011;4732;49.340;10.886;2023-08-01T15:21:02;3.03;;;1.30;;
9384;SDS011;4732;49.340;10.886;2023-08-01T15:23:28;2.35;;;1.20;;
9384;SDS011;4732;49.340;10.886;2023-08-01T15:25:58;3.83;;;1.20;;
9384;SDS011;4732;49.340;10.886;2023-08-01T15:28:24;1.58;;;1.10;;
9384;SDS011;4732;49.340;10.886;2023-08-01T15:31:00;2.15;;;1.20;;
9384;SDS011;4732;49.340;10.886;2023-08-01T15:33:34;2.35;;;1.30;;
9384;SDS011;4732;49.340;10.886;2023-08-01T15:36:01;2.03;;;1.20;;
9384;SDS011;4732;49.340;10.886;2023-08-01T15:38:29;3.80;;;1.40;;
9384;SDS011;4732;49.340;10.886;2023-08-01T15:40:56;1.88;;;1.20;;
9384;SDS011;4732;49.340;10.886;2023-08-01T15:43:22;1.75;;;1.48;;
9384;SDS011;4732;49.340;10.886;2023-08-01T15:45:49;5.47;;;1.73;;
9384;SDS011;4732;49.340;10.886;2023-08-01T15:48:14;1.52;;;1.30;;
9384;SDS011;4732;49.340;10.886;2023-08-01T15:50:41;2.42;;;1.30;;
9384;SDS011;4732;49.340;10.886;2023-08-01T15:53:07;3.30;;;1.45;;
9384;SDS011;4732;49.340;10.886;2023-08-01T15:55:32;4.32;;;1.60;;
9384;SDS011;4732;49.340;10.886;2023-08-01T15:57:58;2.17;;;1.40;;
9384;SDS011;4732;49.340;10.886;2023-08-01T16:00:23;3.50;;;1.45;;
9384;SDS011;4732;49.340;10.886;2023-08-01T16:02:49;2.25;;;1.30;;
9384;SDS011;4732;49.340;10.886;2023-08-01T16:05:14;3.58;;;1.50;;
9384;SDS011;4732;49.340;10.886;2023-08-01T16:07:40;2.55;;;1.45;;
9384;SDS011;4732;49.340;10.886;2023-08-01T16:10:05;2.97;;;1.58;;
9384;SDS011;4732;49.340;10.886;2023-08-01T16:12:31;3.15;;;1.23;;
9384;SDS011;4732;49.340;10.886;2023-08-01T16:14:57;2.25;;;1.27;;
9384;SDS011;4732;49.340;10.886;2023-08-01T16:17:22;2.72;;;1.30;;
9384;SDS011;4732;49.340;10.886;2023-08-01T16:19:48;2.05;;;1.30;;
9384;SDS011;4732;49.340;10.886;2023-08-01T16:22:13;2.13;;;1.10;;
9384;SDS011;4732;49.340;10.886;2023-08-01T16:24:38;5.53;;;1.50;;
9384;SDS011;4732;49.340;10.886;2023-08-01T16:27:04;1.20;;;1.10;;
9384;SDS011;4732;49.340;10.886;2023-08-01T16:29:30;1.52;;;1.20;;
9384;SDS011;4732;49.340;10.886;2023-08-01T16:31:56;3.38;;;1.50;;
9384;SDS011;4732;49.340;10.886;2023-08-01T16:34:21;1.42;;;1.23;;
9384;SDS011;4732;49.340;10.886;2023-08-01T16:36:47;1.20;;;0.85;;
9384;SDS011;4732;49.340;10.886;2023-08-01T16:39:12;3.65;;;1.33;;
9384;SDS011;4732;49.340;10.886;2023-08-01T16:41:38;1.48;;;1.33;;
9384;SDS011;4732;49.340;10.886;2023-08-01T16:44:03;4.25;;;1.30;;
9384;SDS011;4732;49.340;10.886;2023-08-01T16:46:29;2.47;;;1.10;;
9384;SDS011;4732;49.340;10.886;2023-08-01T16:48:54;1.58;;;1.20;;
9384;SDS011;4732;49.340;10.886;2023-08-01T16:51:20;1.38;;;1.23;;
9384;SDS011;4732;49.340;10.886;2023-08-01T16:53:46;4.40;;;1.10;;
9384;SDS011;4732;49.340;10.886;2023-08-01T16:56:11;2.95;;;1.20;;
9384;SDS011;4732;49.340;10.886;2023-08-01T16:58:37;1.88;;;1.35;;
9384;SDS011;4732;49.340;10.886;2023-08-01T17:01:02;1.48;;;1.13;;
9384;SDS011;4732;49.340;10.886;2023-08-01T17:03:28;2.30;;;1.17;;
9384;SDS011;4732;49.340;10.886;2023-08-01T17:05:53;1.20;;;1.00;;
9384;SDS011;4732;49.340;10.886;2023-08-01T17:08:19;1.77;;;1.25;;
9384;SDS011;4732;49.340;10.886;2023-08-01T17:10:44;3.00;;;1.23;;
9384;SDS011;4732;49.340;10.886;2023-08-01T17:13:10;4.45;;;1.38;;
9384;SDS011;4732;49.340;10.886;2023-08-01T17:15:35;4.93;;;1.30;;
9384;SDS011;4732;49.340;10.886;2023-08-01T17:18:01;2.08;;;1.30;;
9384;SDS011;4732;49.340;10.886;2023-08-01T17:20:26;3.92;;;1.20;;
9384;SDS011;4732;49.340;10.886;2023-08-01T17:22:52;4.47;;;1.35;;
9384;SDS011;4732;49.340;10.886;2023-08-01T17:25:18;2.60;;;1.55;;
9384;SDS011;4732;49.340;10.886;2023-08-01T17:27:43;5.30;;;1.65;;
9384;SDS011;4732;49.340;10.886;2023-08-01T17:30:10;2.80;;;1.20;;
9384;SDS011;4732;49.340;10.886;2023-08-01T17:32:36;2.92;;;1.02;;
9384;SDS011;4732;49.340;10.886;2023-08-01T17:35:02;2.28;;;1.05;;
9384;SDS011;4732;49.340;10.886;2023-08-01T17:37:27;2.28;;;1.40;;
9384;SDS011;4732;49.340;10.886;2023-08-01T17:39:53;4.00;;;1.25;;
9384;SDS011;4732;49.340;10.886;2023-08-01T17:42:18;2.72;;;1.40;;
9384;SDS011;4732;49.340;10.886;2023-08-01T17:44:44;2.67;;;1.42;;
9384;SDS011;4732;49.340;10.886;2023-08-01T17:47:09;4.85;;;1.50;;
9384;SDS011;4732;49.340;10.886;2023-08-01T17:49:35;3.00;;;1.40;;
9384;SDS011;4732;49.340;10.886;2023-08-01T17:52:00;4.55;;;1.00;;
9384;SDS011;4732;49.340;10.886;2023-08-01T17:54:26;1.58;;;1.33;;
9384;SDS011;4732;49.340;10.886;2023-08-01T17:56:51;4.72;;;1.33;;
9384;SDS011;4732;49.340;10.886;2023-08-01T17:59:17;5.53;;;1.50;;
9384;SDS011;4732;49.340;10.886;2023-08-01T18:01:43;3.30;;;1.20;;